Time;durP1;ratioP1;P1;durP2;ratioP2;P2;SDS_P1;SDS_P2;PMS_P1;PMS_P2;Temp;Humidity;BMP_temperature;BMP_pressure;BME280_temperature;BME280_humidity;BME280_pressure;Samples;Min_cycle;Max_cycle;Signal;HPM_P1;HPM_P2
2022/10/31 00:00:20;;;;;;;10.50;6.75;;;;;;;13.03;93.05;101995.50;5041377;28;20424;-74
2022/10/31 00:02:45;;;;;;;12.45;7.43;;;;;;;12.96;93.15;102002.09;5037232;28;20519;-74
2022/10/31 00:05:11;;;;;;;12.13;7.25;;;;;;;12.96;93.07;101997.75;5041541;28;20476;-74
2022/10/31 00:07:36;;;;;;;11.25;7.35;;;;;;;12.98;93.28;101992.41;5032144;28;20051;-78
2022/10/31 00:10:02;;;;;;;12.93;7.97;;;;;;;13.00;93.54;102000.94;5032375;28;20388;-76
2022/10/31 00:12:27;;;;;;;13.95;7.47;;;;;;;12.97;93.37;101988.16;5054658;28;20025;-75
2022/10/31 00:14:53;;;;;;;14.20;9.93;;;;;;;12.87;93.96;101987.16;5042590;28;20462;-75
2022/10/31 00:17:18;;;;;;;13.45;7.13;;;;;;;12.95;93.61;101997.81;5026270;28;20071;-74
2022/10/31 00:19:43;;;;;;;12.55;7.25;;;;;;;12.92;93.72;101995.47;5038163;28;20074;-74
2022/10/31 00:22:09;;;;;;;12.90;8.32;;;;;;;12.88;93.81;101989.63;5040351;28;20529;-75
2022/10/31 00:24:34;;;;;;;14.25;8.63;;;;;;;12.90;93.79;101994.72;5039399;28;20083;-74
2022/10/31 00:26:59;;;;;;;13.30;8.05;;;;;;;12.89;93.97;101998.28;5037073;28;20029;-74
2022/10/31 00:29:25;;;;;;;15.77;8.68;;;;;;;12.87;94.20;101995.78;5029522;28;20025;-76
2022/10/31 00:31:51;;;;;;;15.10;8.90;;;;;;;12.88;94.16;102002.66;5041747;28;20099;-74
2022/10/31 00:34:17;;;;;;;14.57;9.45;;;;;;;12.84;94.36;102000.38;5034835;28;20033;-76
2022/10/31 00:36:42;;;;;;;15.00;9.40;;;;;;;12.86;94.55;102003.72;5033302;28;20381;-74
2022/10/31 00:39:07;;;;;;;15.48;11.20;;;;;;;12.81;95.05;101995.41;5044346;28;20492;-74
2022/10/31 00:41:33;;;;;;;15.52;8.38;;;;;;;12.90;94.32;102005.13;5041901;28;20033;-76
2022/10/31 00:43:58;;;;;;;13.88;9.27;;;;;;;12.85;94.60;101996.84;5036783;28;20025;-74
2022/10/31 00:46:23;;;;;;;14.50;8.40;;;;;;;12.80;94.26;101994.59;5030233;28;20043;-75
2022/10/31 00:48:49;;;;;;;14.73;8.80;;;;;;;12.83;94.57;102003.94;5028867;28;20039;-74
2022/10/31 00:51:14;;;;;;;14.52;8.93;;;;;;;12.80;94.23;102019.78;5045000;28;20025;-78
2022/10/31 00:53:40;;;;;;;12.88;9.23;;;;;;;12.73;94.59;101999.41;5041138;28;20086;-75
2022/10/31 00:56:06;;;;;;;13.55;8.70;;;;;;;12.72;94.68;102002.91;5037784;28;20033;-75
2022/10/31 00:58:31;;;;;;;15.40;9.45;;;;;;;12.66;94.96;101997.31;5038526;28;20033;-75
2022/10/31 01:00:56;;;;;;;16.38;9.82;;;;;;;12.67;95.52;102009.41;5045069;28;20021;-74
2022/10/31 01:03:30;;;;;;;18.65;11.10;;;;;;;12.63;95.45;101997.56;5027253;28;20069;-75
2022/10/31 01:06:11;;;;;;;16.70;9.40;;;;;;;12.68;95.28;101995.47;5041294;28;20365;-75
2022/10/31 01:08:38;;;;;;;15.45;9.88;;;;;;;12.67;95.32;101997.25;5029875;28;20074;-78
2022/10/31 01:11:08;;;;;;;16.95;9.98;;;;;;;12.72;95.74;102002.91;5060247;28;20033;-76
2022/10/31 01:13:34;;;;;;;18.70;11.32;;;;;;;12.69;95.80;101997.94;5030343;28;20045;-75
2022/10/31 01:16:01;;;;;;;16.10;9.82;;;;;;;12.73;95.94;101994.19;5040277;28;20031;-74
2022/10/31 01:18:27;;;;;;;16.77;10.55;;;;;;;12.73;95.62;101998.53;5039483;28;20033;-75
2022/10/31 01:21:08;;;;;;;16.85;10.63;;;;;;;12.76;95.72;102003.53;5028095;28;20120;-74
2022/10/31 01:23:34;;;;;;;18.48;11.70;;;;;;;12.69;95.80;102002.34;5034461;28;20085;-74
2022/10/31 01:26:21;;;;;;;17.38;10.40;;;;;;;12.73;95.14;101995.94;5051482;28;20024;-76
2022/10/31 01:28:48;;;;;;;16.02;11.02;;;;;;;12.65;95.08;101980.88;5053081;28;20036;-75
2022/10/31 01:31:15;;;;;;;16.33;11.30;;;;;;;12.57;95.59;101972.81;5053596;28;20229;-76
2022/10/31 01:33:40;;;;;;;13.60;9.57;;;;;;;12.56;95.07;101973.75;5039969;28;20035;-74
2022/10/31 01:36:15;;;;;;;17.52;11.55;;;;;;;12.50;95.54;101968.97;5033422;28;20030;-75
2022/10/31 01:38:41;;;;;;;15.35;9.93;;;;;;;12.49;94.46;101980.31;5038163;28;20436;-74
2022/10/31 01:41:06;;;;;;;16.27;10.00;;;;;;;12.38;93.86;101972.44;5036531;28;20452;-77
2022/10/31 01:43:58;;;;;;;14.85;11.68;;;;;;;12.28;94.57;101981.84;5063494;28;20032;-74
2022/10/31 01:46:36;;;;;;;14.65;9.82;;;;;;;12.27;94.50;101987.97;5052259;28;20055;-74
2022/10/31 01:49:05;;;;;;;14.93;8.30;;;;;;;12.22;94.72;101983.13;5039773;28;20032;-76
2022/10/31 01:51:38;;;;;;;12.45;8.70;;;;;;;12.21;95.06;101981.44;5027979;28;20096;-75
2022/10/31 01:54:15;;;;;;;16.10;10.32;;;;;;;12.14;94.93;101975.81;5038290;28;20469;-74
2022/10/31 01:56:45;;;;;;;16.52;10.05;;;;;;;12.20;95.27;101983.19;5033332;28;20083;-74
2022/10/31 01:59:14;;;;;;;16.02;9.73;;;;;;;12.19;95.14;101978.94;5052239;28;20050;-74
2022/10/31 02:01:40;;;;;;;18.75;11.52;;;;;;;12.17;95.27;101978.22;5016428;28;20545;-79
2022/10/31 02:04:07;;;;;;;14.20;9.77;;;;;;;12.18;94.94;101982.50;5045131;28;20443;-74
2022/10/31 02:06:35;;;;;;;16.65;9.68;;;;;;;12.22;94.94;101991.75;5040002;28;20079;-74
2022/10/31 02:09:03;;;;;;;15.40;9.20;;;;;;;12.22;95.13;101994.34;5038149;28;20024;-74
2022/10/31 02:11:29;;;;;;;14.70;10.07;;;;;;;12.17;94.86;101991.22;5042771;28;20024;-74
2022/10/31 02:13:54;;;;;;;13.43;9.52;;;;;;;12.13;95.06;101984.56;5034884;28;20052;-74
2022/10/31 02:16:20;;;;;;;19.23;11.88;;;;;;;12.10;94.95;101979.59;5037518;28;20052;-74
2022/10/31 02:18:46;;;;;;;18.40;10.50;;;;;;;12.12;95.05;101987.28;5046019;28;20618;-74
2022/10/31 02:21:34;;;;;;;17.02;11.10;;;;;;;12.04;95.65;101973.97;5044911;28;20048;-74
2022/10/31 02:24:18;;;;;;;15.10;10.23;;;;;;;12.07;95.19;101985.00;5045267;28;20033;-74
2022/10/31 02:27:02;;;;;;;18.48;11.55;;;;;;;11.97;95.22;101968.38;5036264;28;20047;-74
2022/10/31 02:30:04;;;;;;;16.27;10.88;;;;;;;12.00;95.38;101968.16;5042603;28;20029;-74
2022/10/31 02:32:43;;;;;;;15.68;11.07;;;;;;;11.95;95.33;101965.06;5015362;28;20040;-75
2022/10/31 02:35:25;;;;;;;15.52;10.80;;;;;;;11.90;95.61;101962.75;5028950;28;20043;-74
2022/10/31 02:38:01;;;;;;;13.48;9.45;;;;;;;11.88;95.45;101969.84;5043597;28;20119;-75
2022/10/31 02:40:29;;;;;;;16.67;9.82;;;;;;;11.85;95.26;101969.22;5039731;28;20031;-75
2022/10/31 02:43:04;;;;;;;14.80;9.57;;;;;;;11.81;94.63;101967.72;5047917;28;20036;-74
2022/10/31 02:45:39;;;;;;;17.35;10.70;;;;;;;11.77;95.25;101972.31;5048267;28;20056;-75
2022/10/31 02:48:27;;;;;;;18.30;10.95;;;;;;;11.76;95.52;101975.03;5041368;28;20074;-74
2022/10/31 02:50:58;;;;;;;16.85;9.98;;;;;;;11.71;96.00;101977.94;5049232;28;20115;-75
2022/10/31 02:53:23;;;;;;;16.38;10.75;;;;;;;11.69;95.54;101980.63;5036102;28;20033;-74
2022/10/31 02:56:00;;;;;;;15.68;10.27;;;;;;;11.67;96.18;101966.91;5044506;28;20104;-75
2022/10/31 02:58:30;;;;;;;18.35;10.30;;;;;;;11.65;95.77;101973.16;5045352;28;20040;-74
2022/10/31 03:01:34;;;;;;;16.55;10.85;;;;;;;11.70;96.31;101982.31;5041578;28;20021;-74
2022/10/31 03:04:05;;;;;;;15.20;9.25;;;;;;;11.68;95.90;101971.16;5037187;28;20076;-74
2022/10/31 03:06:43;;;;;;;15.63;10.20;;;;;;;11.62;96.25;101968.97;5042625;28;20539;-74
2022/10/31 03:09:25;;;;;;;17.17;9.90;;;;;;;11.65;96.49;101971.38;5027507;28;20140;-75
2022/10/31 03:12:16;;;;;;;14.75;10.50;;;;;;;11.63;96.57;101970.63;5034185;28;20470;-74
2022/10/31 03:14:50;;;;;;;16.52;11.05;;;;;;;11.63;96.99;101983.63;5036486;28;20128;-77
2022/10/31 03:17:33;;;;;;;15.48;11.20;;;;;;;11.63;96.64;101975.84;5042408;28;20025;-75
2022/10/31 03:20:00;;;;;;;15.68;11.00;;;;;;;11.62;96.97;101987.16;5042308;28;20392;-74
2022/10/31 03:22:31;;;;;;;16.27;10.98;;;;;;;11.60;96.53;101981.25;5033644;28;20040;-74
2022/10/31 03:24:59;;;;;;;15.38;11.02;;;;;;;11.59;95.90;101984.78;5032660;28;20425;-74
2022/10/31 03:27:26;;;;;;;;;;;;;;;11.63;95.47;101983.63;5052907;28;20443;-75
2022/10/31 03:29:55;;;;;;;14.40;10.55;;;;;;;11.54;96.18;101984.28;5041237;28;19928;-75
2022/10/31 03:32:36;;;;;;;15.00;11.02;;;;;;;11.54;96.35;101989.47;5051920;28;20526;-77
2022/10/31 03:35:05;;;;;;;14.35;10.10;;;;;;;11.47;96.21;101985.63;5039274;28;20045;-74
2022/10/31 03:37:32;;;;;;;;;;;;;;;11.53;95.71;101984.38;5055542;28;20459;-75
2022/10/31 03:39:59;;;;;;;16.92;10.30;;;;;;;11.43;96.33;101978.97;5042456;28;19919;-75
2022/10/31 03:42:28;;;;;;;20.23;11.55;;;;;;;11.43;96.93;101979.78;5030145;28;20065;-74
2022/10/31 03:45:11;;;;;;;18.25;11.40;;;;;;;11.42;97.02;101985.91;5026500;28;20060;-74
2022/10/31 03:47:38;;;;;;;15.98;10.02;;;;;;;11.41;96.46;101986.00;5034774;28;20108;-74
2022/10/31 03:50:06;;;;;;;19.15;11.30;;;;;;;11.33;97.03;101983.09;5008444;28;20041;-75
2022/10/31 03:52:38;;;;;;;17.77;10.88;;;;;;;11.30;97.20;101983.31;5032317;28;20049;-74
2022/10/31 03:55:16;;;;;;;16.08;10.57;;;;;;;11.28;97.34;101980.78;5047838;28;20543;-76
2022/10/31 03:57:51;;;;;;;16.90;10.33;;;;;;;11.28;96.87;101985.16;5032071;28;20041;-75
2022/10/31 04:00:17;;;;;;;15.40;10.27;;;;;;;11.27;96.93;101983.50;5034976;28;20020;-74
2022/10/31 04:02:50;;;;;;;16.92;10.25;;;;;;;11.21;97.00;101973.53;5037792;28;20595;-74
2022/10/31 04:05:17;;;;;;;15.15;9.85;;;;;;;11.20;96.92;101977.06;5032138;28;20466;-74
2022/10/31 04:07:47;;;;;;;13.60;9.43;;;;;;;11.21;97.23;101978.72;5041343;28;20507;-74
2022/10/31 04:10:15;;;;;;;15.82;10.20;;;;;;;11.20;97.61;101987.44;5044682;28;20044;-75
2022/10/31 04:12:45;;;;;;;17.20;10.73;;;;;;;11.19;97.45;101980.59;5038688;28;20032;-74
2022/10/31 04:15:12;;;;;;;17.52;10.48;;;;;;;11.14;97.14;101973.94;5029524;28;20045;-75
2022/10/31 04:17:42;;;;;;;17.38;9.95;;;;;;;11.15;97.18;101975.59;5035686;28;20041;-77
2022/10/31 04:20:08;;;;;;;16.42;10.00;;;;;;;11.13;97.62;101982.66;5026825;28;20564;-74
2022/10/31 04:22:34;;;;;;;17.25;11.27;;;;;;;11.10;98.33;101977.66;5030730;28;20417;-75
2022/10/31 04:24:59;;;;;;;16.38;10.55;;;;;;;11.09;97.37;101976.00;5029172;28;20855;-74
2022/10/31 04:27:24;;;;;;;16.20;10.52;;;;;;;11.10;98.66;101977.66;5047124;28;20037;-74
2022/10/31 04:29:50;;;;;;;17.67;10.73;;;;;;;11.10;97.88;101969.84;5060339;28;20028;-74
2022/10/31 04:32:15;;;;;;;16.20;11.05;;;;;;;11.08;98.11;101963.94;5066839;28;20583;-74
2022/10/31 04:34:40;;;;;;;16.83;9.65;;;;;;;11.11;98.38;101968.09;5046692;28;20057;-74
2022/10/31 04:37:05;;;;;;;15.70;10.27;;;;;;;11.04;98.08;101967.66;5030934;28;20499;-74
2022/10/31 04:39:31;;;;;;;16.00;9.57;;;;;;;11.04;98.22;101970.25;5050684;28;20055;-74
2022/10/31 04:41:56;;;;;;;15.98;10.40;;;;;;;11.04;98.32;101978.06;5034217;28;20076;-76
2022/10/31 04:44:21;;;;;;;13.57;9.52;;;;;;;11.03;98.72;101971.19;5052288;28;20025;-74
2022/10/31 04:46:47;;;;;;;15.25;9.57;;;;;;;10.99;97.81;101969.72;5039382;28;20062;-74
2022/10/31 04:49:13;;;;;;;14.10;9.60;;;;;;;10.94;97.85;101961.41;5033115;28;20467;-74
2022/10/31 04:51:38;;;;;;;16.50;9.27;;;;;;;10.98;97.49;101972.44;5037601;28;20032;-74
2022/10/31 04:54:03;;;;;;;12.93;9.18;;;;;;;10.93;97.57;101975.31;5014037;28;20461;-74
2022/10/31 04:56:29;;;;;;;14.85;9.15;;;;;;;10.90;98.62;101970.34;5035753;28;20545;-74
2022/10/31 04:58:54;;;;;;;12.48;8.32;;;;;;;10.89;98.16;101979.03;5026478;28;20505;-74
2022/10/31 05:01:20;;;;;;;12.60;8.82;;;;;;;10.88;97.68;101977.38;5037440;28;20104;-79
2022/10/31 05:03:45;;;;;;;11.52;8.32;;;;;;;10.88;97.68;101974.78;5047244;28;20034;-74
2022/10/31 05:06:11;;;;;;;12.48;8.30;;;;;;;10.85;98.11;101967.19;5027967;28;20068;-74
2022/10/31 05:08:36;;;;;;;12.75;8.60;;;;;;;10.82;97.59;101967.38;5039613;28;20033;-74
2022/10/31 05:11:03;;;;;;;11.65;8.15;;;;;;;10.78;98.36;101955.53;5048083;28;20548;-71
2022/10/31 05:13:29;;;;;;;12.95;9.05;;;;;;;10.74;98.10;101954.91;5045938;28;20035;-74
2022/10/31 05:15:54;;;;;;;11.55;8.02;;;;;;;10.72;98.42;101950.72;5050920;28;20044;-73
2022/10/31 05:18:19;;;;;;;13.13;8.57;;;;;;;10.67;98.21;101953.66;5042884;28;20031;-73
2022/10/31 05:20:45;;;;;;;10.98;7.47;;;;;;;10.63;98.52;101946.97;5049015;28;20032;-74
2022/10/31 05:23:11;;;;;;;12.73;8.43;;;;;;;10.64;98.41;101949.47;5048491;28;20106;-74
2022/10/31 05:25:36;;;;;;;11.75;7.80;;;;;;;10.65;97.86;101955.50;5056141;28;20150;-75
2022/10/31 05:28:04;;;;;;;13.18;8.80;;;;;;;10.63;98.07;101953.00;5047788;28;20195;-74
2022/10/31 05:30:31;;;;;;;12.55;9.10;;;;;;;10.52;98.04;101950.25;5055488;28;20476;-74
2022/10/31 05:32:57;;;;;;;12.70;8.80;;;;;;;10.53;98.49;101954.50;5039397;28;20059;-74
2022/10/31 05:35:25;;;;;;;12.35;7.93;;;;;;;10.46;98.18;101945.47;5047715;28;20461;-74
2022/10/31 05:37:51;;;;;;;11.55;8.50;;;;;;;10.40;97.50;101948.44;5050865;28;20047;-74
2022/10/31 05:40:18;;;;;;;12.65;8.00;;;;;;;10.36;97.49;101957.34;5055261;28;20381;-73
2022/10/31 05:42:43;;;;;;;12.73;8.00;;;;;;;10.28;97.68;101959.59;5051154;28;20047;-73
2022/10/31 05:45:11;;;;;;;10.02;7.32;;;;;;;10.23;98.10;101952.09;5046602;28;20100;-74
2022/10/31 05:47:37;;;;;;;14.50;7.55;;;;;;;10.20;97.59;101951.41;5045296;28;20041;-74
2022/10/31 05:50:03;;;;;;;12.50;8.15;;;;;;;10.21;98.22;101959.09;5046857;28;20102;-74
2022/10/31 05:52:28;;;;;;;13.27;7.88;;;;;;;10.21;98.82;101958.28;5046041;28;20029;-72
2022/10/31 05:54:53;;;;;;;12.18;8.88;;;;;;;10.21;98.44;101960.88;5056230;28;20052;-73
2022/10/31 05:57:19;;;;;;;13.75;8.73;;;;;;;10.24;99.26;101955.50;5040063;28;20453;-75
2022/10/31 05:59:44;;;;;;;11.65;8.63;;;;;;;10.17;99.00;101943.81;5032201;28;20420;-74
2022/10/31 06:02:09;;;;;;;12.32;8.30;;;;;;;10.28;99.98;101957.00;5061635;28;20048;-73
2022/10/31 06:04:35;;;;;;;11.25;7.93;;;;;;;10.30;99.17;101952.53;5044865;28;20036;-74
2022/10/31 06:07:00;;;;;;;11.15;7.93;;;;;;;10.29;99.37;101953.47;5050597;28;20074;-74
2022/10/31 06:09:25;;;;;;;14.77;7.63;;;;;;;10.27;99.49;101945.78;5041494;28;20074;-74
2022/10/31 06:11:51;;;;;;;13.93;8.70;;;;;;;10.29;99.40;101948.28;5043552;28;20029;-74
2022/10/31 06:14:16;;;;;;;12.75;8.32;;;;;;;10.27;99.80;101944.97;5053683;28;20056;-74
2022/10/31 06:16:41;;;;;;;14.57;8.07;;;;;;;10.26;99.75;101945.88;5045078;28;20272;-75
2022/10/31 06:19:06;;;;;;;11.93;7.72;;;;;;;10.19;98.83;101936.78;5053133;28;20040;-74
2022/10/31 06:21:34;;;;;;;11.68;7.80;;;;;;;10.16;98.62;101936.97;5047249;28;20082;-74
2022/10/31 06:23:59;;;;;;;11.52;7.35;;;;;;;10.16;98.42;101947.34;5048753;28;20032;-74
2022/10/31 06:26:25;;;;;;;11.32;7.53;;;;;;;10.16;99.39;101952.53;5044356;28;20038;-76
2022/10/31 06:28:50;;;;;;;11.07;7.80;;;;;;;10.15;99.36;101945.66;5050165;28;20039;-75
2022/10/31 06:31:15;;;;;;;12.25;8.00;;;;;;;10.15;99.96;101950.84;5041742;28;20099;-74
2022/10/31 06:33:42;;;;;;;12.73;8.13;;;;;;;10.13;98.31;101953.53;5042578;28;20473;-74
2022/10/31 06:36:08;;;;;;;12.60;7.47;;;;;;;10.09;98.65;101947.72;5044896;28;20059;-74
2022/10/31 06:38:33;;;;;;;10.82;7.55;;;;;;;10.08;98.52;101951.22;5054743;28;20075;-74
2022/10/31 06:41:03;;;;;;;10.73;7.30;;;;;;;10.00;99.02;101948.28;5050691;28;20509;-74
2022/10/31 06:43:28;;;;;;;13.00;7.78;;;;;;;10.03;99.35;101953.25;5038565;28;20025;-74
2022/10/31 06:45:54;;;;;;;10.85;7.25;;;;;;;9.99;99.19;101941.44;5023026;28;20017;-74
2022/10/31 06:48:19;;;;;;;12.43;8.57;;;;;;;9.92;99.10;101955.72;5029790;28;20036;-74
2022/10/31 06:50:44;;;;;;;14.50;8.90;;;;;;;9.88;98.84;101943.84;5031728;28;20029;-74
2022/10/31 06:53:10;;;;;;;12.30;8.23;;;;;;;9.89;98.79;101955.88;5032774;28;20034;-77
2022/10/31 06:55:35;;;;;;;13.40;8.80;;;;;;;9.89;98.72;101950.69;5028091;28;20397;-78
2022/10/31 06:58:01;;;;;;;15.13;8.82;;;;;;;9.89;98.55;101961.06;5037315;28;20433;-74
2022/10/31 07:00:29;;;;;;;11.50;8.13;;;;;;;9.83;99.65;101951.91;5032363;28;20417;-74
2022/10/31 07:03:06;;;;;;;15.02;9.02;;;;;;;9.90;99.49;101961.88;5032094;28;20028;-75
2022/10/31 07:05:32;;;;;;;14.77;10.25;;;;;;;9.89;99.88;101942.91;5042792;28;20041;-74
2022/10/31 07:08:00;;;;;;;14.20;9.55;;;;;;;9.91;100.00;101948.84;5031372;28;20025;-74
2022/10/31 07:10:27;;;;;;;15.23;9.15;;;;;;;9.96;100.00;101946.78;5060070;28;20028;-73
2022/10/31 07:12:59;;;;;;;14.00;9.93;;;;;;;10.02;100.00;101943.81;5046322;28;20485;-74
2022/10/31 07:15:26;;;;;;;11.88;8.27;;;;;;;10.09;100.00;101952.91;5030399;28;20049;-74
2022/10/31 07:17:52;;;;;;;11.23;8.52;;;;;;;10.13;100.00;101944.94;5042941;28;20054;-73
2022/10/31 07:20:18;;;;;;;13.48;10.38;;;;;;;10.13;100.00;101942.34;5035755;28;20103;-74
2022/10/31 07:22:43;;;;;;;13.40;9.60;;;;;;;10.19;100.00;101941.97;5048090;28;20032;-74
2022/10/31 07:25:10;;;;;;;17.90;11.63;;;;;;;10.25;100.00;101952.81;5044732;28;20373;-74
2022/10/31 07:27:36;;;;;;;16.63;10.65;;;;;;;10.29;100.00;101943.09;5020307;28;20389;-74
2022/10/31 07:30:02;;;;;;;16.67;11.27;;;;;;;10.28;100.00;101946.63;5045250;28;20026;-75
2022/10/31 07:32:36;;;;;;;16.80;11.77;;;;;;;10.34;100.00;101954.00;5035676;28;20517;-74
2022/10/31 07:35:01;;;;;;;16.75;11.65;;;;;;;10.37;100.00;101951.22;5042451;28;20037;-75
2022/10/31 07:37:27;;;;;;;18.52;12.25;;;;;;;10.40;100.00;101951.03;5043816;28;20527;-76
2022/10/31 07:39:52;;;;;;;18.77;12.55;;;;;;;10.43;100.00;101955.19;5032884;28;20094;-74
2022/10/31 07:42:18;;;;;;;18.38;13.48;;;;;;;10.44;100.00;101947.31;5044411;28;20115;-74
2022/10/31 07:44:43;;;;;;;18.35;12.45;;;;;;;10.49;100.00;101950.44;5043645;28;20106;-75
2022/10/31 07:47:08;;;;;;;18.05;13.98;;;;;;;10.53;100.00;101946.72;5040365;28;20027;-74
2022/10/31 07:49:34;;;;;;;20.65;13.85;;;;;;;10.58;100.00;101960.25;5033000;28;20025;-74
2022/10/31 07:51:59;;;;;;;22.95;15.93;;;;;;;10.62;100.00;101950.50;5063147;28;20461;-74
2022/10/31 07:54:25;;;;;;;23.27;16.02;;;;;;;10.64;100.00;101946.88;5058809;28;20458;-74
2022/10/31 07:56:50;;;;;;;22.88;15.80;;;;;;;10.70;100.00;101957.81;5039539;28;20028;-74
2022/10/31 07:59:15;;;;;;;22.60;17.27;;;;;;;10.69;100.00;101949.19;5042881;28;20060;-75
2022/10/31 08:01:41;;;;;;;25.55;17.10;;;;;;;10.81;100.00;101960.53;5053493;28;20433;-74
2022/10/31 08:04:06;;;;;;;22.50;16.33;;;;;;;10.86;100.00;101968.88;5034249;28;20448;-75
2022/10/31 08:06:31;;;;;;;23.02;19.08;;;;;;;10.85;100.00;101957.66;5044089;28;20529;-79
2022/10/31 08:08:57;;;;;;;24.83;18.55;;;;;;;10.93;100.00;101957.16;5058002;28;20032;-75
2022/10/31 08:11:22;;;;;;;24.05;16.40;;;;;;;10.97;100.00;101961.22;5045622;28;20113;-74
2022/10/31 08:13:47;;;;;;;25.98;17.05;;;;;;;11.04;100.00;101967.66;5047929;28;20043;-75
2022/10/31 08:16:13;;;;;;;25.23;18.17;;;;;;;11.06;100.00;101970.97;5048148;28;20431;-75
2022/10/31 08:18:38;;;;;;;22.52;16.20;;;;;;;11.10;100.00;101972.44;5046198;28;20112;-74
2022/10/31 08:21:03;;;;;;;24.50;16.85;;;;;;;11.16;100.00;101966.03;5056809;28;20053;-75
2022/10/31 08:23:29;;;;;;;22.67;16.27;;;;;;;11.22;100.00;101964.78;5046261;28;20025;-74
2022/10/31 08:25:54;;;;;;;22.30;17.40;;;;;;;11.27;100.00;101962.72;5059103;28;20039;-74
2022/10/31 08:28:19;;;;;;;23.77;17.63;;;;;;;11.30;100.00;101957.34;5033343;28;20037;-73
2022/10/31 08:30:46;;;;;;;23.13;17.13;;;;;;;11.36;100.00;101954.34;5051907;28;20025;-75
2022/10/31 08:33:13;;;;;;;25.80;16.67;;;;;;;11.45;100.00;101956.28;5046468;28;20040;-74
2022/10/31 08:35:38;;;;;;;25.02;17.10;;;;;;;11.52;100.00;101954.94;5047871;28;20401;-73
2022/10/31 08:38:04;;;;;;;23.73;16.13;;;;;;;11.57;100.00;101950.28;5045540;28;20021;-74
2022/10/31 08:40:31;;;;;;;22.15;16.77;;;;;;;11.59;100.00;101943.22;5041759;28;20033;-73
2022/10/31 08:43:02;;;;;;;25.48;18.35;;;;;;;11.74;100.00;101950.91;5048006;28;20500;-74
2022/10/31 08:45:29;;;;;;;25.30;18.90;;;;;;;11.79;100.00;101948.81;5043087;28;20025;-74
2022/10/31 08:47:59;;;;;;;29.70;18.55;;;;;;;11.87;100.00;101949.13;5038246;28;20051;-74
2022/10/31 08:50:25;;;;;;;27.35;20.23;;;;;;;11.92;100.00;101944.44;5047006;28;20032;-74
2022/10/31 08:52:50;;;;;;;31.80;20.48;;;;;;;11.95;100.00;101939.88;5045766;28;20063;-74
2022/10/31 08:55:16;;;;;;;29.60;20.08;;;;;;;11.99;100.00;101940.50;5039200;28;20033;-75
2022/10/31 08:57:41;;;;;;;27.33;19.88;;;;;;;12.04;100.00;101938.41;5046989;28;20091;-75
2022/10/31 09:00:07;;;;;;;30.58;19.00;;;;;;;12.01;100.00;101928.22;5053707;28;20044;-74
2022/10/31 09:02:32;;;;;;;23.63;18.30;;;;;;;12.08;100.00;101939.84;5034624;28;20489;-76
2022/10/31 09:04:58;;;;;;;24.55;17.15;;;;;;;12.11;100.00;101934.44;5028093;28;20041;-74
2022/10/31 09:07:23;;;;;;;27.02;18.38;;;;;;;12.16;100.00;101929.75;5052628;28;20029;-74
2022/10/31 09:09:48;;;;;;;29.02;19.35;;;;;;;12.23;100.00;101932.75;5027002;28;20025;-74
2022/10/31 09:12:14;;;;;;;27.20;19.83;;;;;;;12.27;100.00;101920.34;5054733;28;20568;-76
2022/10/31 09:14:39;;;;;;;26.02;18.70;;;;;;;12.26;100.00;101890.06;5056829;28;20078;-74
2022/10/31 09:17:04;;;;;;;28.13;18.25;;;;;;;12.30;100.00;101883.72;5053738;28;20451;-76
2022/10/31 09:19:30;;;;;;;29.92;19.63;;;;;;;12.34;100.00;101893.81;5044087;28;20505;-74
2022/10/31 09:21:55;;;;;;;25.60;16.77;;;;;;;12.36;100.00;101906.69;5060947;28;20487;-74
2022/10/31 09:24:21;;;;;;;27.17;17.45;;;;;;;12.44;100.00;101919.97;5056319;28;20032;-74
2022/10/31 09:26:46;;;;;;;26.58;16.23;;;;;;;12.44;100.00;101914.75;5054390;28;20401;-74
2022/10/31 09:29:11;;;;;;;23.90;15.43;;;;;;;12.51;100.00;101925.59;5049679;28;20029;-74
2022/10/31 09:31:37;;;;;;;22.30;14.98;;;;;;;12.55;100.00;101917.41;5037289;28;20033;-74
2022/10/31 09:34:03;;;;;;;22.98;14.63;;;;;;;12.59;100.00;101924.06;5029035;28;20115;-74
2022/10/31 09:36:28;;;;;;;25.50;16.52;;;;;;;12.62;100.00;101908.25;5050803;28;20276;-74
2022/10/31 09:38:53;;;;;;;25.10;17.17;;;;;;;12.66;100.00;101914.03;5050821;28;20413;-74
2022/10/31 09:41:35;;;;;;;26.35;15.98;;;;;;;12.68;100.00;101902.59;5038716;28;20029;-74
2022/10/31 09:44:14;;;;;;;25.98;17.27;;;;;;;12.76;100.00;101915.84;5035091;28;20111;-74
2022/10/31 09:47:16;;;;;;;25.85;16.48;;;;;;;12.84;100.00;101911.84;5037980;28;20112;-74
2022/10/31 09:50:06;;;;;;;22.77;17.15;;;;;;;12.87;100.00;101901.22;5036126;28;20444;-77
2022/10/31 09:52:38;;;;;;;24.77;16.67;;;;;;;12.92;100.00;101905.16;5054207;28;20052;-74
2022/10/31 09:55:18;;;;;;;24.27;17.73;;;;;;;13.01;100.00;101895.81;5037828;28;20095;-74
2022/10/31 09:57:44;;;;;;;27.50;18.50;;;;;;;13.05;100.00;101889.44;5034794;28;20116;-74
2022/10/31 10:00:17;;;;;;;25.90;17.83;;;;;;;13.08;100.00;101876.19;5045907;28;20495;-74
2022/10/31 10:02:49;;;;;;;25.38;18.38;;;;;;;13.12;100.00;101867.19;5031460;28;20056;-74
2022/10/31 10:05:23;;;;;;;26.33;20.20;;;;;;;13.14;100.00;101857.50;5039714;28;20410;-74
2022/10/31 10:08:14;;;;;;;25.45;18.90;;;;;;;13.21;100.00;101863.09;5030189;28;20485;-76
2022/10/31 10:10:59;;;;;;;25.90;19.95;;;;;;;13.26;100.00;101871.41;4999235;28;20126;-74
2022/10/31 10:13:49;;;;;;;29.35;20.13;;;;;;;13.33;100.00;101869.16;5042561;28;20026;-75
2022/10/31 10:16:40;;;;;;;30.60;21.13;;;;;;;13.38;100.00;101888.69;5044056;28;20540;-75
2022/10/31 10:19:19;;;;;;;32.45;21.55;;;;;;;13.38;100.00;101880.88;5039711;28;20033;-77
2022/10/31 10:22:21;;;;;;;31.95;19.77;;;;;;;13.46;100.00;101882.88;5035349;28;20499;-76
2022/10/31 10:25:28;;;;;;;33.88;20.58;;;;;;;13.49;100.00;101872.25;5044155;28;20029;-74
2022/10/31 10:28:38;;;;;;;30.50;19.35;;;;;;;13.52;100.00;101845.91;5036493;28;20009;-74
2022/10/31 10:31:20;;;;;;;30.38;19.23;;;;;;;13.55;100.00;101862.16;5041903;28;20523;-74
2022/10/31 10:33:48;;;;;;;31.30;19.15;;;;;;;13.58;100.00;101848.06;5032540;28;20044;-74
2022/10/31 10:36:39;;;;;;;31.75;18.98;;;;;;;13.63;100.00;101837.28;5044632;28;20049;-74
2022/10/31 10:39:15;;;;;;;35.15;21.92;;;;;;;13.60;100.00;101842.75;5028263;28;20028;-74
2022/10/31 10:41:45;;;;;;;36.17;27.00;;;;;;;13.63;100.00;101817.25;5031435;28;20064;-74
2022/10/31 10:44:11;;;;;;;34.33;24.02;;;;;;;13.68;100.00;101799.47;5046016;28;20063;-74
2022/10/31 10:49:50;;;;;;;37.40;27.73;;;;;;;13.84;100.00;101808.69;5042898;28;20044;-74
2022/10/31 10:52:34;;;;;;;33.58;23.77;;;;;;;13.91;100.00;101794.19;5038824;28;20025;-74
2022/10/31 10:54:59;;;;;;;37.50;28.40;;;;;;;13.91;100.00;101783.75;5036495;28;20561;-74
2022/10/31 10:57:42;;;;;;;37.40;22.65;;;;;;;13.95;100.00;101790.41;5036303;28;20100;-74
2022/10/31 11:00:18;;;;;;;32.40;23.42;;;;;;;13.94;100.00;101804.41;5045838;28;20543;-75
2022/10/31 11:02:44;;;;;;;40.15;23.90;;;;;;;13.99;100.00;101813.50;5057693;28;20056;-74
2022/10/31 11:05:19;;;;;;;36.53;25.52;;;;;;;14.04;100.00;101808.72;5046549;28;20061;-74
2022/10/31 11:07:45;;;;;;;35.25;24.40;;;;;;;14.06;100.00;101792.97;5059361;28;20080;-73
2022/10/31 11:10:16;;;;;;;37.05;27.88;;;;;;;14.09;100.00;101788.31;5045440;28;20024;-73
2022/10/31 11:12:59;;;;;;;34.42;21.80;;;;;;;14.14;100.00;101785.34;5057548;28;20036;-74
2022/10/31 11:15:27;;;;;;;40.20;24.42;;;;;;;14.19;100.00;101784.97;5049189;28;20059;-74
2022/10/31 11:17:55;;;;;;;34.65;20.38;;;;;;;14.24;100.00;101780.22;5045953;28;20525;-75
2022/10/31 11:20:30;;;;;;;36.35;25.38;;;;;;;14.23;100.00;101768.94;5052786;28;20031;-77
2022/10/31 11:23:17;;;;;;;41.78;34.42;;;;;;;14.24;100.00;101744.50;5049182;28;20025;-74